Time;durP1;ratioP1;P1;durP2;ratioP2;P2;SDS_P1;SDS_P2;PMS_P1;PMS_P2;Temp;Humidity;BMP_temperature;BMP_pressure;BME280_temperature;BME280_humidity;BME280_pressure;Samples;Min_cycle;Max_cycle;Signal;HPM_P1;HPM_P2
2023/01/05 00:01:20;;;;;;;1.40;0.40;;;10.60;99.90;;;;;;5077702;28;20074;-67
2023/01/05 00:03:46;;;;;;;1.20;0.40;;;10.50;99.90;;;;;;5076275;28;20033;-67
2023/01/05 00:06:14;;;;;;;0.40;0.30;;;10.50;99.90;;;;;;5059969;28;20064;-67
2023/01/05 00:08:40;;;;;;;2.05;0.20;;;10.50;99.90;;;;;;5077360;28;20021;-67
2023/01/05 00:22:29;;;;;;;0.20;0.20;;;10.50;99.90;;;;;;5057799;28;20095;-67
2023/01/05 00:25:06;;;;;;;0.65;0.20;;;10.60;99.90;;;;;;5056469;28;20052;-67
2023/01/05 00:27:32;;;;;;;0.20;0.20;;;10.50;99.90;;;;;;5057450;28;20024;-67
2023/01/05 00:29:58;;;;;;;1.33;0.28;;;10.50;99.90;;;;;;5056136;28;20082;-66
2023/01/05 00:32:25;;;;;;;0.52;0.30;;;10.60;99.90;;;;;;5057189;28;20067;-67
2023/01/05 00:34:54;;;;;;;0.90;0.10;;;10.60;99.90;;;;;;5056705;28;20032;-68
2023/01/05 00:37:21;;;;;;;0.30;0.30;;;10.60;99.90;;;;;;5097897;28;20031;-66
2023/01/05 00:39:47;;;;;;;0.68;0.30;;;10.70;99.90;;;;;;5096575;28;20028;-67
2023/01/05 00:42:13;;;;;;;0.20;0.20;;;10.70;99.90;;;;;;5097510;28;20427;-68
2023/01/05 00:44:38;;;;;;;0.38;0.38;;;10.80;99.90;;;;;;5097389;28;20107;-67
2023/01/05 00:47:04;;;;;;;0.70;0.30;;;10.80;99.90;;;;;;5094188;28;20463;-67
2023/01/05 00:49:30;;;;;;;0.10;0.10;;;10.80;99.90;;;;;;5092829;28;20081;-66
2023/01/05 00:51:55;;;;;;;0.40;0.20;;;10.90;99.90;;;;;;5093840;28;20085;-67
2023/01/05 00:54:21;;;;;;;0.10;0.10;;;10.80;99.90;;;;;;5094008;28;20501;-67
2023/01/05 00:56:50;;;;;;;0.22;0.10;;;10.80;99.90;;;;;;5093116;28;20098;-67
2023/01/05 00:59:16;;;;;;;0.70;0.15;;;10.80;99.90;;;;;;5073633;28;20021;-68
2023/01/05 01:01:50;;;;;;;0.20;0.17;;;10.80;99.90;;;;;;5073572;28;20454;-67
2023/01/05 01:04:17;;;;;;;0.10;0.10;;;10.90;99.90;;;;;;5073733;28;20021;-67
2023/01/05 01:06:43;;;;;;;0.08;0.08;;;10.90;99.90;;;;;;5073550;28;20077;-68
2023/01/05 01:09:11;;;;;;;0.20;0.20;;;10.90;99.90;;;;;;5073379;28;20408;-68
2023/01/05 01:11:37;;;;;;;0.98;0.10;;;10.90;99.90;;;;;;5073628;28;20399;-67
2023/01/05 01:14:05;;;;;;;0.52;0.10;;;10.90;99.90;;;;;;5072519;28;20040;-68
2023/01/05 01:16:31;;;;;;;0.20;0.20;;;10.90;99.90;;;;;;5079177;28;20120;-68
2023/01/05 01:18:56;;;;;;;0.40;0.10;;;10.90;99.90;;;;;;5093105;28;20078;-68
2023/01/05 01:21:22;;;;;;;0.13;0.13;;;10.90;99.90;;;;;;5075634;28;20429;-68
2023/01/05 01:23:48;;;;;;;0.45;0.10;;;10.90;99.90;;;;;;5092179;28;20074;-67
2023/01/05 01:26:13;;;;;;;0.20;0.10;;;10.90;99.90;;;;;;5093938;28;20031;-68
2023/01/05 01:28:39;;;;;;;0.57;0.10;;;11.00;99.90;;;;;;5093269;28;20346;-68
2023/01/05 01:31:05;;;;;;;2.53;0.50;;;10.90;99.90;;;;;;5092911;28;20077;-68
2023/01/05 01:33:32;;;;;;;0.20;0.10;;;10.90;99.90;;;;;;5093043;28;20423;-68
2023/01/05 01:35:58;;;;;;;0.40;0.20;;;11.00;99.90;;;;;;5082999;28;20044;-68
2023/01/05 01:38:24;;;;;;;0.35;0.20;;;10.90;99.90;;;;;;5072811;28;20107;-68
2023/01/05 01:40:50;;;;;;;0.30;0.10;;;10.90;99.90;;;;;;5072334;28;20497;-68
2023/01/05 01:43:18;;;;;;;0.00;0.00;;;10.90;99.90;;;;;;5072767;28;20097;-68
2023/01/05 01:45:44;;;;;;;0.10;0.10;;;10.90;99.90;;;;;;5071285;28;20497;-68
2023/01/05 01:48:16;;;;;;;0.10;0.10;;;10.90;99.90;;;;;;5066666;28;20104;-68
2023/01/05 01:50:47;;;;;;;0.10;0.10;;;10.90;99.90;;;;;;5052939;28;20118;-68
2023/01/05 01:53:24;;;;;;;2.80;0.10;;;10.90;99.90;;;;;;5052753;28;20025;-68
2023/01/05 01:55:51;;;;;;;1.73;0.15;;;10.90;99.90;;;;;;5052086;28;20033;-68
2023/01/05 01:58:18;;;;;;;1.00;0.50;;;10.90;99.90;;;;;;5065008;28;20025;-68
2023/01/05 02:00:45;;;;;;;0.32;0.17;;;10.80;99.90;;;;;;5072050;28;20028;-69
2023/01/05 02:03:11;;;;;;;0.10;0.10;;;10.80;99.90;;;;;;5072455;28;20025;-68
2023/01/05 02:05:37;;;;;;;0.00;0.00;;;10.80;99.90;;;;;;5073055;28;20103;-68
2023/01/05 02:08:09;;;;;;;2.03;0.20;;;10.80;99.90;;;;;;5071305;28;20025;-67
2023/01/05 02:11:05;;;;;;;0.17;0.13;;;10.80;99.90;;;;;;5072838;28;20028;-67
2023/01/05 02:13:52;;;;;;;0.25;0.05;;;10.80;99.90;;;;;;5072072;28;20146;-67
2023/01/05 02:16:35;;;;;;;0.00;0.00;;;10.80;99.90;;;;;;5070613;28;20066;-67
2023/01/05 02:19:35;;;;;;;0.05;0.00;;;10.80;99.90;;;;;;5051353;28;20033;-67
2023/01/05 02:22:36;;;;;;;0.10;0.10;;;10.80;99.90;;;;;;5051799;28;20064;-67
2023/01/05 02:25:47;;;;;;;0.15;0.15;;;10.80;99.90;;;;;;5051044;28;20033;-67
2023/01/05 02:28:18;;;;;;;0.00;0.00;;;10.80;99.90;;;;;;5020899;28;20037;-67
2023/01/05 02:31:18;;;;;;;0.73;0.10;;;10.80;99.90;;;;;;5059573;28;20102;-68
2023/01/05 02:34:21;;;;;;;0.00;0.00;;;10.90;99.90;;;;;;5050449;28;20047;-68
2023/01/05 02:37:15;;;;;;;0.75;0.10;;;10.80;99.90;;;;;;5068161;28;20059;-68
2023/01/05 02:39:56;;;;;;;0.10;0.10;;;10.80;99.90;;;;;;5037107;28;20059;-70
2023/01/05 02:42:23;;;;;;;1.33;0.00;;;10.80;99.90;;;;;;5092523;28;20345;-67
2023/01/05 02:44:49;;;;;;;0.68;0.10;;;10.80;99.90;;;;;;5090849;28;20453;-67
2023/01/05 02:47:24;;;;;;;0.00;0.00;;;10.80;99.90;;;;;;5074217;28;20039;-67
2023/01/05 02:49:52;;;;;;;0.15;0.10;;;10.80;99.90;;;;;;5090775;28;20366;-68
2023/01/05 02:52:20;;;;;;;0.30;0.30;;;10.80;99.90;;;;;;5092068;28;20115;-67
2023/01/05 02:54:55;;;;;;;0.38;0.10;;;10.90;99.90;;;;;;5091391;28;20361;-68
2023/01/05 02:57:57;;;;;;;0.57;0.10;;;10.80;99.90;;;;;;5086978;28;20453;-67
2023/01/05 03:00:29;;;;;;;1.17;0.10;;;10.90;99.90;;;;;;5044317;28;20041;-67
2023/01/05 03:03:04;;;;;;;0.60;0.10;;;10.80;99.90;;;;;;5050225;28;20470;-67
2023/01/05 03:05:42;;;;;;;0.00;0.00;;;10.80;99.90;;;;;;5051951;28;20458;-67
2023/01/05 03:08:21;;;;;;;0.15;0.00;;;10.70;99.90;;;;;;5057393;28;20036;-67
2023/01/05 03:13:45;;;;;;;0.17;0.17;;;10.70;99.90;;;;;;5070082;28;20116;-67
2023/01/05 03:16:18;;;;;;;0.57;0.05;;;10.80;99.90;;;;;;5071348;28;20442;-66
2023/01/05 03:35:29;;;;;;;0.10;0.00;;;10.90;99.90;;;;;;5054481;28;20031;-66
2023/01/05 03:38:11;;;;;;;0.10;0.10;;;10.90;99.90;;;;;;5049843;28;20037;-66
2023/01/05 03:40:38;;;;;;;0.10;0.00;;;10.80;99.90;;;;;;5051245;28;20386;-66
2023/01/05 03:43:06;;;;;;;0.10;0.10;;;10.80;99.90;;;;;;5050035;28;20697;-66
2023/01/05 03:45:38;;;;;;;0.20;0.10;;;10.70;99.90;;;;;;5051406;28;20029;-67
2023/01/05 03:48:05;;;;;;;0.73;0.00;;;10.70;99.90;;;;;;5049935;28;20029;-67
2023/01/05 03:50:30;;;;;;;0.13;0.03;;;10.80;99.90;;;;;;5051276;28;20536;-67
2023/01/05 03:52:56;;;;;;;0.00;0.00;;;10.80;99.90;;;;;;5050170;28;20033;-67
2023/01/05 03:55:22;;;;;;;0.43;0.10;;;10.80;99.90;;;;;;5049720;28;20025;-67
2023/01/05 03:57:47;;;;;;;0.32;0.00;;;10.90;99.90;;;;;;5058388;28;20047;-67
2023/01/05 04:00:13;;;;;;;1.38;0.13;;;10.90;99.90;;;;;;5071262;28;20064;-67
2023/01/05 04:02:39;;;;;;;0.10;0.10;;;10.90;99.90;;;;;;5055468;28;20112;-67
2023/01/05 04:05:05;;;;;;;0.17;0.17;;;10.90;99.90;;;;;;5057610;28;20497;-67
2023/01/05 04:07:31;;;;;;;0.30;0.30;;;10.90;99.90;;;;;;5050939;28;20025;-67
2023/01/05 04:09:56;;;;;;;0.73;0.10;;;10.90;99.90;;;;;;5049878;28;20069;-67
2023/01/05 04:12:22;;;;;;;0.52;0.20;;;10.90;99.90;;;;;;5050746;28;20470;-68
2023/01/05 04:14:47;;;;;;;0.10;0.10;;;10.80;99.90;;;;;;5049605;28;20029;-67
2023/01/05 04:17:13;;;;;;;0.10;0.10;;;10.70;99.90;;;;;;5050734;28;20032;-67
2023/01/05 04:19:38;;;;;;;0.25;0.10;;;10.70;99.90;;;;;;5050282;28;20025;-67
2023/01/05 04:22:04;;;;;;;0.75;0.20;;;10.70;99.90;;;;;;5046360;28;20462;-68
2023/01/05 04:24:30;;;;;;;0.52;0.00;;;10.80;99.90;;;;;;5033179;28;20053;-67
2023/01/05 04:26:55;;;;;;;0.10;0.10;;;10.80;99.90;;;;;;5054353;28;20032;-68
2023/01/05 04:29:21;;;;;;;0.10;0.10;;;10.80;99.90;;;;;;5074104;28;20032;-67
2023/01/05 04:31:46;;;;;;;0.40;0.20;;;10.80;99.90;;;;;;5059437;28;20035;-68
2023/01/05 04:34:12;;;;;;;0.00;0.00;;;10.80;99.90;;;;;;5054059;28;20470;-68
2023/01/05 04:36:37;;;;;;;0.52;0.22;;;10.80;99.90;;;;;;5080934;28;20044;-67
2023/01/05 04:39:03;;;;;;;0.20;0.10;;;10.90;99.90;;;;;;5083140;28;20494;-68
2023/01/05 04:41:29;;;;;;;0.95;0.10;;;10.90;99.90;;;;;;5054398;28;20032;-67
2023/01/05 04:43:54;;;;;;;0.10;0.00;;;11.00;99.90;;;;;;5053199;28;20036;-68
2023/01/05 04:46:20;;;;;;;0.10;0.10;;;11.00;99.90;;;;;;5054301;28;20112;-68
2023/01/05 04:48:45;;;;;;;0.35;0.10;;;11.00;99.90;;;;;;5052827;28;20039;-67
2023/01/05 04:51:11;;;;;;;0.30;0.10;;;11.10;99.90;;;;;;5054515;28;20025;-67
2023/01/05 04:53:37;;;;;;;0.10;0.10;;;11.10;99.90;;;;;;5086869;28;20360;-67
2023/01/05 04:56:02;;;;;;;0.30;0.10;;;11.10;99.90;;;;;;5053258;28;20028;-68
2023/01/05 04:58:28;;;;;;;1.35;0.10;;;11.10;99.90;;;;;;5067801;28;20025;-67
2023/01/05 05:00:54;;;;;;;0.00;0.00;;;11.10;99.90;;;;;;5073375;28;20060;-68
2023/01/05 05:03:20;;;;;;;0.10;0.10;;;11.20;99.90;;;;;;5073447;28;20063;-67
2023/01/05 05:05:45;;;;;;;0.10;0.10;;;11.20;99.90;;;;;;5073258;28;20496;-67
2023/01/05 05:08:11;;;;;;;0.08;0.08;;;11.20;99.90;;;;;;5073599;28;20028;-67
2023/01/05 05:10:37;;;;;;;0.10;0.00;;;11.20;99.90;;;;;;5073659;28;20485;-67
2023/01/05 05:13:02;;;;;;;0.75;0.10;;;11.20;99.90;;;;;;5072595;28;20196;-67
2023/01/05 05:15:28;;;;;;;0.28;0.20;;;11.20;99.90;;;;;;5073644;28;20032;-66
2023/01/05 05:17:53;;;;;;;0.55;0.05;;;11.20;99.90;;;;;;5072496;28;20440;-66
2023/01/05 05:20:19;;;;;;;0.20;0.13;;;11.20;99.90;;;;;;5073236;28;20032;-67
2023/01/05 05:22:45;;;;;;;0.60;0.08;;;11.10;99.90;;;;;;5070833;28;20029;-68
2023/01/05 05:25:12;;;;;;;0.30;0.10;;;11.10;99.90;;;;;;5055755;28;20132;-67
2023/01/05 05:27:37;;;;;;;0.00;0.00;;;11.10;99.90;;;;;;5052244;28;20124;-66
2023/01/05 05:30:04;;;;;;;0.05;0.00;;;11.00;99.90;;;;;;5052253;28;20048;-68
2023/01/05 05:32:30;;;;;;;0.10;0.10;;;11.00;99.90;;;;;;5053598;28;20033;-68
2023/01/05 05:34:56;;;;;;;0.20;0.03;;;10.90;99.90;;;;;;5052921;28;20547;-68
2023/01/05 05:37:21;;;;;;;0.65;0.00;;;10.90;99.90;;;;;;5090816;28;20028;-67
2023/01/05 05:39:47;;;;;;;0.38;0.10;;;10.80;99.90;;;;;;5092184;28;20469;-68
2023/01/05 05:42:12;;;;;;;0.00;0.00;;;10.70;99.90;;;;;;5093062;28;20078;-68
2023/01/05 05:44:38;;;;;;;0.08;0.08;;;10.60;99.90;;;;;;5092842;28;20031;-68
2023/01/05 05:47:04;;;;;;;0.17;0.10;;;10.50;99.90;;;;;;5092566;28;20131;-67
2023/01/05 05:49:29;;;;;;;0.47;0.10;;;10.40;99.90;;;;;;5092847;28;20033;-68
2023/01/05 05:51:55;;;;;;;0.10;0.10;;;10.40;99.90;;;;;;5081535;28;20070;-70
2023/01/05 05:54:20;;;;;;;1.10;0.10;;;10.40;99.90;;;;;;5072168;28;20024;-68
2023/01/05 05:56:46;;;;;;;0.55;0.00;;;10.50;99.90;;;;;;5052159;28;20033;-68
2023/01/05 05:59:12;;;;;;;0.98;0.10;;;10.40;99.90;;;;;;5072709;28;20039;-68
2023/01/05 06:01:37;;;;;;;0.10;0.00;;;10.40;99.90;;;;;;5059323;28;20082;-68
2023/01/05 06:04:03;;;;;;;0.00;0.00;;;10.30;99.90;;;;;;5051838;28;20086;-68
2023/01/05 06:06:29;;;;;;;0.65;0.10;;;10.40;99.90;;;;;;5052547;28;20116;-68
2023/01/05 06:08:54;;;;;;;0.20;0.10;;;10.20;99.90;;;;;;5051499;28;20486;-69
2023/01/05 06:11:20;;;;;;;1.48;0.00;;;10.20;99.90;;;;;;5053137;28;20029;-68
2023/01/05 06:13:47;;;;;;;0.95;0.10;;;10.20;99.90;;;;;;5052439;28;20024;-68
2023/01/05 06:16:13;;;;;;;1.42;0.10;;;10.10;99.90;;;;;;5052452;28;20036;-68
2023/01/05 06:18:39;;;;;;;1.08;0.10;;;10.00;99.90;;;;;;5052312;28;20567;-68
2023/01/05 06:21:05;;;;;;;2.22;0.20;;;9.90;99.90;;;;;;5052064;28;20064;-68
2023/01/05 06:23:31;;;;;;;0.65;0.22;;;9.90;99.90;;;;;;5053408;28;20149;-67
2023/01/05 06:25:57;;;;;;;1.27;0.30;;;9.80;99.90;;;;;;5051584;28;20068;-67
2023/01/05 06:28:22;;;;;;;3.10;0.30;;;9.80;99.90;;;;;;5052035;28;20079;-67
2023/01/05 06:30:48;;;;;;;0.80;0.35;;;9.80;99.90;;;;;;5050899;28;20104;-68
2023/01/05 06:33:13;;;;;;;1.40;0.50;;;9.70;99.90;;;;;;5051982;28;20032;-69
2023/01/05 06:35:39;;;;;;;2.20;0.43;;;9.80;99.90;;;;;;5057661;28;20021;-69
2023/01/05 06:38:05;;;;;;;3.08;0.45;;;9.70;99.90;;;;;;5071002;28;20111;-68
2023/01/05 06:40:30;;;;;;;1.67;0.30;;;9.70;99.90;;;;;;5072282;28;20060;-68
2023/01/05 06:42:56;;;;;;;5.68;0.77;;;9.60;99.90;;;;;;5071010;28;20074;-68
2023/01/05 06:45:21;;;;;;;1.17;0.30;;;9.60;99.90;;;;;;5070661;28;20029;-68
2023/01/05 06:47:47;;;;;;;2.38;0.40;;;9.50;99.90;;;;;;5069856;28;20056;-69
2023/01/05 06:50:12;;;;;;;1.77;0.38;;;9.50;99.90;;;;;;5051744;28;20028;-68
2023/01/05 06:52:39;;;;;;;3.30;0.55;;;9.50;99.90;;;;;;5052423;28;20421;-68
2023/01/05 06:55:06;;;;;;;1.65;0.45;;;9.40;99.90;;;;;;5050747;28;20356;-68
2023/01/05 06:57:32;;;;;;;2.33;0.55;;;9.40;99.90;;;;;;5057878;28;20028;-68
2023/01/05 06:59:58;;;;;;;3.72;0.52;;;9.40;99.90;;;;;;5070648;28;20470;-68
2023/01/05 07:02:23;;;;;;;0.75;0.40;;;9.30;99.90;;;;;;5071900;28;20028;-68
2023/01/05 07:04:49;;;;;;;1.45;0.40;;;9.30;99.90;;;;;;5070556;28;20047;-68
2023/01/05 07:07:15;;;;;;;3.58;0.52;;;9.30;99.90;;;;;;5057772;28;20116;-68
2023/01/05 07:09:41;;;;;;;2.13;0.52;;;9.40;99.90;;;;;;5051075;28;20489;-67
2023/01/05 07:12:07;;;;;;;1.05;0.32;;;9.40;99.90;;;;;;5051323;28;20025;-67
2023/01/05 07:14:33;;;;;;;2.30;0.47;;;9.40;99.90;;;;;;5051623;28;20055;-67
2023/01/05 07:16:59;;;;;;;0.68;0.25;;;9.30;99.90;;;;;;5050754;28;20072;-67
2023/01/05 07:19:24;;;;;;;2.20;0.40;;;9.30;99.90;;;;;;5051209;28;20167;-68
2023/01/05 07:21:50;;;;;;;1.95;0.40;;;9.40;99.90;;;;;;5050354;28;20100;-68
2023/01/05 07:24:16;;;;;;;2.47;0.40;;;9.40;99.90;;;;;;5050472;28;20435;-68
2023/01/05 07:26:41;;;;;;;3.85;1.80;;;9.30;99.90;;;;;;5051119;28;20382;-68
2023/01/05 07:29:07;;;;;;;2.80;0.60;;;9.50;99.90;;;;;;5050475;28;20075;-67
2023/01/05 07:31:33;;;;;;;1.35;0.70;;;9.60;99.90;;;;;;5051501;28;20098;-68
2023/01/05 07:33:58;;;;;;;3.25;0.70;;;9.60;99.90;;;;;;5050450;28;20041;-68
2023/01/05 07:36:24;;;;;;;1.63;0.70;;;9.60;99.90;;;;;;5062145;28;20029;-67
2023/01/05 07:38:51;;;;;;;4.20;0.70;;;9.70;99.90;;;;;;5069672;28;20032;-67
2023/01/05 07:41:17;;;;;;;4.63;1.23;;;9.60;99.90;;;;;;5071322;28;20029;-68
2023/01/05 07:43:42;;;;;;;4.68;1.02;;;9.70;99.90;;;;;;5070271;28;20358;-68
2023/01/05 07:46:08;;;;;;;5.05;0.90;;;9.80;99.90;;;;;;5050498;28;20044;-68
2023/01/05 07:48:33;;;;;;;5.85;0.90;;;9.80;99.90;;;;;;5050704;28;20033;-67
2023/01/05 07:51:04;;;;;;;2.08;0.50;;;9.90;99.90;;;;;;5050175;28;20025;-68
2023/01/05 07:53:29;;;;;;;;;;;9.90;99.90;;;;;;5050921;28;20056;-68
2023/01/05 07:56:00;;;;;;;1.90;0.47;;;9.90;99.90;;;;;;5050278;28;19959;-68
2023/01/05 07:58:26;;;;;;;;;;;9.90;99.90;;;;;;5066098;28;20028;-67
2023/01/05 08:00:52;;;;;;;5.53;0.85;;;10.00;99.90;;;;;;5094399;28;19910;-68
2023/01/05 08:03:17;;;;;;;4.88;0.95;;;10.00;99.90;;;;;;5095029;28;20095;-67
2023/01/05 08:05:43;;;;;;;4.30;0.80;;;10.20;99.90;;;;;;5085910;28;20060;-68
2023/01/05 08:08:09;;;;;;;1.98;0.60;;;10.20;99.90;;;;;;5053836;28;20032;-67
2023/01/05 08:10:37;;;;;;;6.60;0.70;;;10.20;99.90;;;;;;5054981;28;20091;-67
2023/01/05 08:15:54;;;;;;;3.35;0.85;;;10.30;99.90;;;;;;5053932;28;20059;-67
2023/01/05 08:18:20;;;;;;;3.75;0.93;;;10.30;99.90;;;;;;5055011;28;20347;-67
2023/01/05 08:20:54;;;;;;;5.28;1.30;;;10.30;99.90;;;;;;5053953;28;20033;-68
2023/01/05 08:23:21;;;;;;;4.97;0.90;;;10.30;99.90;;;;;;5052503;28;20049;-67
2023/01/05 08:25:47;;;;;;;7.53;1.92;;;10.20;99.90;;;;;;5055591;28;20029;-68
2023/01/05 08:28:12;;;;;;;3.35;0.65;;;10.30;99.90;;;;;;5059827;28;20102;-68
2023/01/05 08:30:38;;;;;;;7.38;1.08;;;10.40;99.90;;;;;;5054159;28;20029;-68
2023/01/05 08:33:04;;;;;;;6.07;1.30;;;10.40;99.90;;;;;;5053345;28;20625;-67
2023/01/05 08:35:30;;;;;;;6.20;1.10;;;10.40;99.90;;;;;;5065843;28;20354;-67
2023/01/05 08:37:55;;;;;;;5.93;1.63;;;10.40;99.90;;;;;;5093124;28;20040;-67
2023/01/05 08:40:21;;;;;;;6.93;1.77;;;10.40;99.90;;;;;;5094434;28;20039;-67
2023/01/05 08:42:47;;;;;;;4.78;1.58;;;10.40;99.90;;;;;;5093392;28;20076;-67
2023/01/05 08:45:14;;;;;;;4.70;1.00;;;10.40;99.90;;;;;;5094662;28;20111;-66
2023/01/05 08:47:40;;;;;;;5.72;1.10;;;10.50;99.90;;;;;;5094407;28;20057;-68
2023/01/05 08:50:08;;;;;;;5.70;1.10;;;10.50;99.90;;;;;;5093137;28;20020;-68
2023/01/05 08:52:34;;;;;;;5.00;1.45;;;10.60;99.90;;;;;;5094403;28;20452;-68
2023/01/05 08:54:59;;;;;;;4.18;0.90;;;10.60;99.90;;;;;;5092955;28;20020;-67
2023/01/05 08:57:25;;;;;;;9.75;1.70;;;10.60;99.90;;;;;;5062500;28;20502;-67
2023/01/05 08:59:51;;;;;;;9.90;1.48;;;10.60;99.90;;;;;;5055743;28;20075;-66
2023/01/05 09:02:16;;;;;;;9.88;1.45;;;10.80;99.90;;;;;;5053527;28;20032;-66
2023/01/05 09:04:42;;;;;;;6.65;1.48;;;10.80;99.90;;;;;;5053516;28;20406;-67
2023/01/05 09:07:07;;;;;;;8.35;1.45;;;10.80;99.90;;;;;;5053561;28;20037;-67
2023/01/05 09:09:33;;;;;;;5.75;1.38;;;10.70;99.90;;;;;;5052816;28;20116;-67
2023/01/05 09:11:58;;;;;;;13.88;1.58;;;10.80;99.90;;;;;;5051763;28;20110;-67
2023/01/05 09:14:24;;;;;;;10.77;1.52;;;10.80;99.90;;;;;;5053367;28;20025;-67
2023/01/05 09:16:50;;;;;;;5.47;1.50;;;10.90;99.90;;;;;;5052437;28;20041;-67
2023/01/05 09:19:15;;;;;;;4.70;1.10;;;10.80;99.90;;;;;;5052994;28;20029;-67
2023/01/05 09:21:41;;;;;;;11.57;1.92;;;10.90;99.90;;;;;;5035569;28;20107;-67
2023/01/05 09:24:11;;;;;;;9.68;1.50;;;10.90;99.90;;;;;;5051845;28;20045;-67
2023/01/05 09:26:36;;;;;;;7.70;1.42;;;11.00;99.90;;;;;;5060833;28;20056;-67
2023/01/05 09:29:03;;;;;;;8.40;2.10;;;11.00;99.90;;;;;;5051603;28;20478;-67
2023/01/05 09:31:29;;;;;;;13.65;2.13;;;11.00;99.90;;;;;;5052777;28;20466;-67
2023/01/05 09:33:58;;;;;;;9.55;1.60;;;11.00;99.90;;;;;;5052307;28;20107;-67
2023/01/05 09:36:24;;;;;;;10.38;2.55;;;11.00;99.90;;;;;;5079610;28;20032;-67
2023/01/05 09:38:51;;;;;;;10.82;1.80;;;11.10;99.90;;;;;;5092405;28;20028;-67
2023/01/05 09:41:17;;;;;;;14.85;2.28;;;11.10;99.90;;;;;;5093561;28;20085;-66
2023/01/05 09:43:45;;;;;;;9.98;2.42;;;11.20;99.90;;;;;;5093039;28;20028;-67
2023/01/05 09:46:18;;;;;;;13.95;2.40;;;11.20;99.90;;;;;;5091724;28;20053;-67
2023/01/05 09:48:48;;;;;;;11.02;2.28;;;11.20;99.90;;;;;;5052013;28;20029;-67
2023/01/05 09:51:14;;;;;;;13.23;2.17;;;11.20;99.90;;;;;;5053180;28;20115;-67
2023/01/05 09:53:40;;;;;;;15.52;2.78;;;11.30;99.90;;;;;;5052648;28;20460;-67
2023/01/05 09:56:15;;;;;;;13.93;2.55;;;11.30;99.90;;;;;;5052101;28;20186;-68
2023/01/05 09:58:44;;;;;;;11.90;2.75;;;11.30;99.90;;;;;;5068212;28;20158;-68
2023/01/05 10:01:15;;;;;;;12.85;2.78;;;11.30;99.90;;;;;;5072679;28;20033;-67
2023/01/05 10:03:58;;;;;;;16.70;2.33;;;11.30;99.90;;;;;;5072150;28;20033;-67
2023/01/05 10:06:29;;;;;;;10.32;2.05;;;11.30;99.90;;;;;;5072867;28;20485;-67
2023/01/05 10:08:55;;;;;;;12.77;2.95;;;11.30;99.90;;;;;;5071593;28;20021;-67
2023/01/05 10:14:41;;;;;;;10.38;2.10;;;11.40;99.90;;;;;;5030959;28;20419;-67
2023/01/05 10:17:13;;;;;;;15.00;2.85;;;11.40;99.90;;;;;;5075259;28;20112;-67
2023/01/05 10:19:39;;;;;;;12.40;2.28;;;11.40;99.90;;;;;;5085320;28;20458;-68
2023/01/05 10:22:23;;;;;;;12.70;2.30;;;11.40;99.90;;;;;;5051706;28;20094;-67
2023/01/05 10:24:54;;;;;;;10.07;1.65;;;11.50;99.90;;;;;;5050405;28;20049;-67
2023/01/05 10:27:28;;;;;;;15.88;3.22;;;11.50;99.90;;;;;;5056585;28;20024;-67
2023/01/05 10:30:04;;;;;;;14.52;2.33;;;11.60;99.90;;;;;;5071066;28;20039;-67
2023/01/05 10:32:29;;;;;;;13.07;1.90;;;11.60;99.90;;;;;;5072440;28;20033;-67
2023/01/05 10:35:05;;;;;;;14.48;2.08;;;11.70;99.90;;;;;;5071698;28;20047;-67
2023/01/05 10:38:14;;;;;;;13.75;2.25;;;11.70;99.90;;;;;;5092631;28;20024;-67
2023/01/05 10:40:45;;;;;;;17.48;3.15;;;11.70;99.90;;;;;;5053579;28;20044;-67
2023/01/05 10:43:26;;;;;;;15.25;2.58;;;11.80;99.90;;;;;;5091663;28;20035;-68
2023/01/05 10:45:51;;;;;;;12.65;3.00;;;11.80;99.90;;;;;;5083338;28;20036;-68
2023/01/05 10:48:22;;;;;;;21.95;2.83;;;11.90;99.90;;;;;;5071652;28;20025;-68
2023/01/05 10:50:49;;;;;;;7.60;2.15;;;11.90;99.90;;;;;;5071243;28;20048;-68
2023/01/05 10:53:21;;;;;;;15.00;2.47;;;11.90;99.90;;;;;;5071276;28;20040;-67
2023/01/05 10:55:56;;;;;;;18.98;3.03;;;11.90;99.90;;;;;;5070939;28;20033;-68
2023/01/05 10:58:43;;;;;;;14.35;2.47;;;11.90;99.90;;;;;;5071116;28;20025;-67
2023/01/05 11:01:27;;;;;;;16.73;2.40;;;11.90;99.90;;;;;;5071553;28;20020;-68
2023/01/05 11:04:04;;;;;;;10.93;3.15;;;11.90;99.90;;;;;;5070480;28;20020;-67
2023/01/05 11:06:33;;;;;;;14.32;2.30;;;12.00;99.90;;;;;;5071919;28;20062;-67
2023/01/05 11:09:18;;;;;;;8.02;2.00;;;12.00;99.90;;;;;;5070436;28;20040;-68
2023/01/05 11:11:52;;;;;;;14.68;2.45;;;;;;;;;;5071318;28;20021;-68
2023/01/05 11:14:20;;;;;;;17.45;2.42;;;;;;;;;;5071126;28;20099;-67
2023/01/05 11:16:49;;;;;;;16.90;2.75;;;12.00;99.90;;;;;;5068555;28;20037;-68
2023/01/05 11:19:28;;;;;;;18.45;2.35;;;12.00;99.90;;;;;;5058762;28;20107;-67
2023/01/05 11:21:54;;;;;;;18.38;2.88;;;12.00;99.90;;;;;;5050489;28;20025;-66
2023/01/05 11:24:22;;;;;;;13.68;2.22;;;12.00;99.90;;;;;;5050408;28;20055;-67
2023/01/05 11:26:53;;;;;;;11.25;2.28;;;11.90;99.90;;;;;;5050941;28;20048;-67
2023/01/05 11:29:19;;;;;;;9.55;2.00;;;11.90;99.90;;;;;;5051198;28;20374;-68
2023/01/05 11:31:47;;;;;;;14.80;2.35;;;11.90;99.90;;;;;;5050570;28;20025;-68
2023/01/05 11:34:24;;;;;;;14.05;2.40;;;11.90;99.90;;;;;;5050452;28;20035;-68
2023/01/05 11:36:53;;;;;;;12.10;2.85;;;11.90;99.90;;;;;;5083989;28;20028;-67
2023/01/05 11:39:47;;;;;;;14.43;2.17;;;11.90;99.90;;;;;;5091108;28;20068;-68
2023/01/05 11:42:13;;;;;;;9.48;2.33;;;12.00;99.90;;;;;;5082049;28;20044;-67
2023/01/05 11:44:49;;;;;;;13.48;2.40;;;12.00;99.90;;;;;;5091028;28;20540;-68
2023/01/05 11:47:23;;;;;;;13.30;2.85;;;12.00;99.90;;;;;;5051747;28;20037;-68
2023/01/05 11:50:13;;;;;;;12.68;2.58;;;12.00;99.90;;;;;;5050002;28;20032;-68
2023/01/05 11:52:47;;;;;;;;;;;12.10;99.90;;;;;;5051717;28;20358;-67
2023/01/05 11:55:19;;;;;;;14.27;2.40;;;12.00;99.90;;;;;;5051302;28;19990;-68
2023/01/05 11:57:46;;;;;;;11.32;2.30;;;12.00;99.90;;;;;;5057898;28;20535;-69
2023/01/05 12:00:43;;;;;;;17.27;3.10;;;12.00;99.90;;;;;;5071141;28;20039;-67
2023/01/05 12:03:21;;;;;;;13.68;2.58;;;12.00;99.90;;;;;;5070386;28;20112;-67
2023/01/05 12:05:54;;;;;;;9.77;2.22;;;12.00;99.90;;;;;;5070219;28;20126;-67
2023/01/05 12:08:29;;;;;;;11.05;2.40;;;12.00;99.90;;;;;;5070563;28;20139;-67
2023/01/05 12:11:20;;;;;;;13.18;3.53;;;12.10;99.90;;;;;;5070039;28;20048;-67
2023/01/05 12:14:29;;;;;;;7.47;2.60;;;12.10;99.90;;;;;;5059650;28;20032;-67
2023/01/05 12:16:56;;;;;;;12.70;3.10;;;12.10;99.90;;;;;;5052860;28;20037;-67
2023/01/05 12:19:33;;;;;;;17.90;3.13;;;12.10;99.90;;;;;;5050105;28;20069;-66
2023/01/05 12:22:16;;;;;;;11.20;2.13;;;12.20;99.90;;;;;;5050145;28;20108;-67
2023/01/05 12:24:52;;;;;;;13.68;2.65;;;12.20;99.90;;;;;;5049592;28;20140;-67
2023/01/05 12:27:47;;;;;;;12.82;2.25;;;12.20;99.90;;;;;;5050994;28;20478;-67
2023/01/05 12:30:30;;;;;;;11.52;2.22;;;12.20;99.90;;;;;;5050859;28;20123;-67
2023/01/05 12:33:24;;;;;;;10.27;2.63;;;12.20;99.90;;;;;;5049341;28;20385;-67
2023/01/05 12:35:56;;;;;;;11.60;2.22;;;12.30;99.90;;;;;;5075552;28;20035;-67
2023/01/05 12:38:53;;;;;;;11.20;2.35;;;12.20;99.90;;;;;;5088755;28;20055;-67
2023/01/05 12:42:13;;;;;;;8.80;2.05;;;12.20;99.90;;;;;;5090802;28;20460;-67
2023/01/05 12:45:02;;;;;;;14.60;2.95;;;12.30;99.90;;;;;;4988713;28;20133;-66
2023/01/05 12:47:56;;;;;;;14.38;3.33;;;12.30;99.90;;;;;;5088826;28;20066;-66
2023/01/05 12:50:53;;;;;;;12.60;2.78;;;12.30;99.90;;;;;;5094647;28;20084;-67
2023/01/05 12:53:24;;;;;;;15.50;2.38;;;12.20;99.90;;;;;;5093690;28;20024;-67
2023/01/05 12:55:55;;;;;;;11.48;2.45;;;12.20;99.90;;;;;;5093581;28;20028;-67
2023/01/05 12:58:32;;;;;;;11.95;2.53;;;12.30;99.90;;;;;;5080632;28;20324;-67
2023/01/05 13:01:01;;;;;;;12.30;2.40;;;12.20;99.90;;;;;;5073358;28;20032;-67
2023/01/05 13:03:59;;;;;;;17.92;3.05;;;12.30;99.90;;;;;;5073646;28;20027;-69
2023/01/05 13:06:29;;;;;;;19.92;3.00;;;12.20;99.90;;;;;;5045862;28;20045;-68
2023/01/05 13:09:15;;;;;;;16.93;2.90;;;12.30;99.90;;;;;;5052440;28;20047;-67
2023/01/05 13:11:55;;;;;;;18.25;3.33;;;12.20;99.90;;;;;;5053681;28;20029;-68
2023/01/05 13:14:26;;;;;;;13.02;2.67;;;12.20;99.90;;;;;;5053591;28;20119;-67
2023/01/05 13:16:58;;;;;;;;;;;12.20;99.90;;;;;;5053336;28;20423;-68
2023/01/05 13:19:27;;;;;;;19.15;3.08;;;12.20;99.90;;;;;;5053755;28;19909;-68
2023/01/05 13:21:54;;;;;;;15.35;2.58;;;12.20;99.90;;;;;;5053198;28;20094;-68
2023/01/05 13:24:26;;;;;;;16.58;2.60;;;12.20;99.90;;;;;;5052515;28;20107;-68
2023/01/05 13:26:53;;;;;;;15.82;2.63;;;12.20;99.90;;;;;;5052832;28;20069;-68
2023/01/05 13:29:35;;;;;;;15.52;3.10;;;12.10;99.90;;;;;;5053430;28;20033;-68
2023/01/05 13:32:01;;;;;;;14.80;3.03;;;12.20;99.90;;;;;;5052545;28;20036;-68
2023/01/05 13:34:56;;;;;;;17.27;2.92;;;12.20;99.90;;;;;;5053186;28;20025;-68
2023/01/05 13:37:44;;;;;;;10.23;2.42;;;12.20;99.90;;;;;;5053353;28;20053;-68
2023/01/05 13:40:48;;;;;;;13.45;2.38;;;12.20;99.90;;;;;;5041826;28;20037;-67
2023/01/05 13:43:43;;;;;;;15.43;2.75;;;12.20;99.90;;;;;;5052624;28;20483;-66